Create Tblcommutelog Verified Points Advance Search
| # | Trip ID | Id Commuter | Trip Date | Trip Num | Current Lat | Current Lng | Delta Distance | Current Time | Activity | Activity Confidence | Current Speed | |
|---|---|---|---|---|---|---|---|---|---|---|---|---|
| 72881 | 251002_753636_16619814_1458 | 753636 | (not set) | (not set) | 38.903210681678 | -77.039660459989 | 0.4774 | 2025-10-02 15:05:04 | on_foot | 100 | -0.44703925898772 | |
| 72882 | 251002_788647_16657480_1505 | 788647 | (not set) | (not set) | 38.852256629902 | -77.0014018371 | 0 | 2025-10-02 15:05:19 | unknown | 100 | 0.34869062201042 | |
| 72883 | 251002_788647_16657480_1505 | 788647 | (not set) | (not set) | 38.852256629902 | -77.0014018371 | 0 | 2025-10-02 15:05:19 | on_bicycle | 100 | 0.34869062201042 | |
| 72884 | 251002_753636_16619814_1458 | 753636 | (not set) | (not set) | 38.902948096726 | -77.039577580227 | 0.4774 | 2025-10-02 15:11:15 | still | 33 | -0.44703925898772 | |
| 72885 | 251002_753636_16619814_1458 | 753636 | (not set) | (not set) | 38.902822133673 | -77.039479197639 | 0.4774 | 2025-10-02 15:11:15 | still | 33 | -0.44703925898772 | |
| 72886 | 251002_788647_16657480_1505 | 788647 | (not set) | (not set) | 38.843563390093 | -77.007607487123 | 0.6867 | 2025-10-02 15:13:37 | in_vehicle | 100 | 3.1963307017622 | |
| 72887 | 251002_788647_16657480_1505 | 788647 | (not set) | (not set) | 38.843563390093 | -77.007607487123 | 0 | 2025-10-02 15:13:37 | in_vehicle | 100 | 3.1963307017622 | |
| 72888 | 251002_788647_16657480_1505 | 788647 | (not set) | (not set) | 38.842700049431 | -77.008192952441 | 0.7542 | 2025-10-02 15:14:05 | in_vehicle | 100 | 6.079733922233 | |
| 72889 | 251002_788647_16657480_1505 | 788647 | (not set) | (not set) | 38.840892911455 | -77.008388400676 | 0.8793 | 2025-10-02 15:14:19 | in_vehicle | 100 | 6.2719608035978 | |
| 72890 | 251002_788647_16657480_1505 | 788647 | (not set) | (not set) | 38.839046031755 | -77.008962218907 | 1.0104 | 2025-10-02 15:14:58 | in_vehicle | 100 | 4.9710765599435 | |
| 72891 | 251002_788647_16657480_1505 | 788647 | (not set) | (not set) | 38.837853601554 | -77.009870035158 | 1.1061 | 2025-10-02 15:15:09 | in_vehicle | 100 | 6.2049049147496 | |
| 72892 | 251002_753636_16619814_1458 | 753636 | (not set) | (not set) | 38.909748443858 | -77.043963684005 | 0.4774 | 2025-10-02 15:15:12 | still | 33 | -0.44703925898772 | |
| 72893 | 251002_753636_16619814_1458 | 753636 | (not set) | (not set) | 38.909748443858 | -77.043963684005 | 0.4774 | 2025-10-02 15:15:12 | still | 33 | -0.44703925898772 | |
| 72894 | 251002_788647_16657480_1505 | 788647 | (not set) | (not set) | 38.836346018533 | -77.011159183448 | 1.2312 | 2025-10-02 15:15:26 | in_vehicle | 100 | 4.6268563305229 | |
| 72895 | 251002_788647_16657480_1505 | 788647 | (not set) | (not set) | 38.835215193941 | -77.012116631921 | 1.3248 | 2025-10-02 15:15:43 | in_vehicle | 100 | 2.5302422058705 | |
| 72896 | 251002_788647_16657480_1505 | 788647 | (not set) | (not set) | 38.834404608301 | -77.012760234823 | 1.3906 | 2025-10-02 15:15:54 | in_vehicle | 100 | 5.4538789596502 | |
| 72897 | 251002_788647_16657480_1505 | 788647 | (not set) | (not set) | 38.833196167076 | -77.013581040922 | 1.485 | 2025-10-02 15:16:07 | in_vehicle | 100 | 5.9232701815873 | |
| 72898 | 251002_788647_16657480_1505 | 788647 | (not set) | (not set) | 38.831596014476 | -77.014792094226 | 1.6133 | 2025-10-02 15:16:19 | in_vehicle | 100 | 7.2420359956011 | |
| 72899 | 251002_788647_16657480_1505 | 788647 | (not set) | (not set) | 38.829903975251 | -77.016020892052 | 1.7475 | 2025-10-02 15:16:30 | in_vehicle | 100 | 9.4057060091017 | |
| 72900 | 251002_788647_16657480_1505 | 788647 | (not set) | (not set) | 38.827669305708 | -77.01690882933 | 1.9089 | 2025-10-02 15:16:43 | in_vehicle | 100 | 9.1643048092483 |